sensor_id;sensor_type;location;lat;lon;timestamp;P1;durP1;ratioP1;P2;durP2;ratioP2
68479;SDS011;55469;48.934;12.050;2023-07-28T00:02:24;3.38;;;2.53;;
68479;SDS011;55469;48.934;12.050;2023-07-28T00:04:50;2.42;;;2.05;;
68479;SDS011;55469;48.934;12.050;2023-07-28T00:07:15;2.45;;;2.00;;
68479;SDS011;55469;48.934;12.050;2023-07-28T00:09:43;2.30;;;2.10;;
68479;SDS011;55469;48.934;12.050;2023-07-28T00:12:08;2.72;;;1.90;;
68479;SDS011;55469;48.934;12.050;2023-07-28T00:14:34;3.03;;;2.10;;
68479;SDS011;55469;48.934;12.050;2023-07-28T00:17:00;2.80;;;2.30;;
68479;SDS011;55469;48.934;12.050;2023-07-28T00:19:25;4.20;;;2.30;;
68479;SDS011;55469;48.934;12.050;2023-07-28T00:21:52;2.30;;;2.10;;
68479;SDS011;55469;48.934;12.050;2023-07-28T00:24:18;2.47;;;2.20;;
68479;SDS011;55469;48.934;12.050;2023-07-28T00:26:44;2.97;;;2.60;;
68479;SDS011;55469;48.934;12.050;2023-07-28T00:29:10;2.38;;;2.08;;
68479;SDS011;55469;48.934;12.050;2023-07-28T00:31:36;3.50;;;2.30;;
68479;SDS011;55469;48.934;12.050;2023-07-28T00:34:02;2.55;;;2.33;;
68479;SDS011;55469;48.934;12.050;2023-07-28T00:36:28;2.65;;;2.40;;
68479;SDS011;55469;48.934;12.050;2023-07-28T00:38:55;2.45;;;2.10;;
68479;SDS011;55469;48.934;12.050;2023-07-28T00:41:21;2.83;;;2.08;;
68479;SDS011;55469;48.934;12.050;2023-07-28T00:43:46;2.80;;;2.45;;
68479;SDS011;55469;48.934;12.050;2023-07-28T00:46:12;3.55;;;2.65;;
68479;SDS011;55469;48.934;12.050;2023-07-28T00:48:39;3.28;;;2.30;;
68479;SDS011;55469;48.934;12.050;2023-07-28T00:51:05;3.20;;;2.35;;
68479;SDS011;55469;48.934;12.050;2023-07-28T00:53:32;2.70;;;2.45;;
68479;SDS011;55469;48.934;12.050;2023-07-28T00:55:59;2.95;;;2.65;;
68479;SDS011;55469;48.934;12.050;2023-07-28T00:58:26;2.70;;;2.38;;
68479;SDS011;55469;48.934;12.050;2023-07-28T01:00:53;3.85;;;2.88;;
68479;SDS011;55469;48.934;12.050;2023-07-28T01:03:18;4.13;;;2.58;;
68479;SDS011;55469;48.934;12.050;2023-07-28T01:08:46;4.03;;;2.75;;
68479;SDS011;55469;48.934;12.050;2023-07-28T01:11:37;2.97;;;2.40;;
68479;SDS011;55469;48.934;12.050;2023-07-28T01:14:03;2.80;;;2.30;;
68479;SDS011;55469;48.934;12.050;2023-07-28T01:16:28;3.67;;;2.53;;
68479;SDS011;55469;48.934;12.050;2023-07-28T01:18:54;2.90;;;2.47;;
68479;SDS011;55469;48.934;12.050;2023-07-28T01:21:20;2.30;;;2.10;;
68479;SDS011;55469;48.934;12.050;2023-07-28T01:23:52;2.88;;;2.25;;
68479;SDS011;55469;48.934;12.050;2023-07-28T01:26:30;2.83;;;2.53;;
68479;SDS011;55469;48.934;12.050;2023-07-28T01:29:05;3.25;;;2.22;;
68479;SDS011;55469;48.934;12.050;2023-07-28T01:31:32;2.60;;;2.40;;
68479;SDS011;55469;48.934;12.050;2023-07-28T01:33:58;2.90;;;2.47;;
68479;SDS011;55469;48.934;12.050;2023-07-28T01:36:24;2.17;;;1.98;;
68479;SDS011;55469;48.934;12.050;2023-07-28T01:38:49;3.28;;;2.33;;
68479;SDS011;55469;48.934;12.050;2023-07-28T01:41:15;3.88;;;2.17;;
68479;SDS011;55469;48.934;12.050;2023-07-28T01:43:41;3.88;;;2.80;;
68479;SDS011;55469;48.934;12.050;2023-07-28T01:46:07;3.00;;;2.67;;
68479;SDS011;55469;48.934;12.050;2023-07-28T01:48:33;2.88;;;2.42;;
68479;SDS011;55469;48.934;12.050;2023-07-28T01:50:59;2.60;;;2.40;;
68479;SDS011;55469;48.934;12.050;2023-07-28T01:53:24;2.97;;;2.22;;
68479;SDS011;55469;48.934;12.050;2023-07-28T01:55:50;2.90;;;2.60;;
68479;SDS011;55469;48.934;12.050;2023-07-28T01:58:16;3.50;;;2.45;;
68479;SDS011;55469;48.934;12.050;2023-07-28T02:00:42;3.67;;;2.63;;
68479;SDS011;55469;48.934;12.050;2023-07-28T02:03:07;2.50;;;2.20;;
68479;SDS011;55469;48.934;12.050;2023-07-28T02:05:33;2.58;;;2.38;;
68479;SDS011;55469;48.934;12.050;2023-07-28T02:07:59;2.75;;;2.40;;
68479;SDS011;55469;48.934;12.050;2023-07-28T02:10:28;2.22;;;2.03;;
68479;SDS011;55469;48.934;12.050;2023-07-28T02:12:54;2.60;;;2.40;;
68479;SDS011;55469;48.934;12.050;2023-07-28T02:15:20;3.72;;;2.65;;
68479;SDS011;55469;48.934;12.050;2023-07-28T02:17:45;3.83;;;2.70;;
68479;SDS011;55469;48.934;12.050;2023-07-28T02:20:11;3.05;;;2.30;;
68479;SDS011;55469;48.934;12.050;2023-07-28T02:22:38;2.65;;;2.20;;
68479;SDS011;55469;48.934;12.050;2023-07-28T02:25:05;2.38;;;2.17;;
68479;SDS011;55469;48.934;12.050;2023-07-28T02:27:31;2.28;;;2.08;;
68479;SDS011;55469;48.934;12.050;2023-07-28T02:29:57;2.60;;;2.40;;
68479;SDS011;55469;48.934;12.050;2023-07-28T02:32:22;3.13;;;2.20;;
68479;SDS011;55469;48.934;12.050;2023-07-28T02:34:48;2.70;;;2.50;;
68479;SDS011;55469;48.934;12.050;2023-07-28T02:37:14;3.97;;;2.65;;
68479;SDS011;55469;48.934;12.050;2023-07-28T02:39:41;3.17;;;2.80;;
68479;SDS011;55469;48.934;12.050;2023-07-28T02:42:07;3.78;;;2.40;;
68479;SDS011;55469;48.934;12.050;2023-07-28T02:44:33;3.80;;;2.83;;
68479;SDS011;55469;48.934;12.050;2023-07-28T02:46:58;4.18;;;3.13;;
68479;SDS011;55469;48.934;12.050;2023-07-28T02:49:24;4.88;;;3.55;;
68479;SDS011;55469;48.934;12.050;2023-07-28T02:51:50;6.10;;;3.40;;
68479;SDS011;55469;48.934;12.050;2023-07-28T02:54:15;3.60;;;2.85;;
68479;SDS011;55469;48.934;12.050;2023-07-28T02:56:41;3.60;;;2.60;;
68479;SDS011;55469;48.934;12.050;2023-07-28T02:59:07;3.22;;;2.53;;
68479;SDS011;55469;48.934;12.050;2023-07-28T03:01:33;3.63;;;3.13;;
68479;SDS011;55469;48.934;12.050;2023-07-28T03:04:00;3.30;;;2.97;;
68479;SDS011;55469;48.934;12.050;2023-07-28T03:06:26;4.28;;;3.47;;
68479;SDS011;55469;48.934;12.050;2023-07-28T03:08:52;3.88;;;3.10;;
68479;SDS011;55469;48.934;12.050;2023-07-28T03:11:18;4.05;;;2.88;;
68479;SDS011;55469;48.934;12.050;2023-07-28T03:13:44;4.00;;;3.55;;
68479;SDS011;55469;48.934;12.050;2023-07-28T03:16:09;4.80;;;3.78;;
68479;SDS011;55469;48.934;12.050;2023-07-28T03:18:35;4.45;;;3.00;;
68479;SDS011;55469;48.934;12.050;2023-07-28T03:21:01;3.83;;;3.10;;
68479;SDS011;55469;48.934;12.050;2023-07-28T03:23:27;4.85;;;2.85;;
68479;SDS011;55469;48.934;12.050;2023-07-28T03:25:52;3.65;;;2.35;;
68479;SDS011;55469;48.934;12.050;2023-07-28T03:28:18;3.28;;;2.95;;
68479;SDS011;55469;48.934;12.050;2023-07-28T03:30:44;3.50;;;2.88;;
68479;SDS011;55469;48.934;12.050;2023-07-28T03:33:10;3.42;;;2.97;;
68479;SDS011;55469;48.934;12.050;2023-07-28T03:35:35;4.15;;;2.70;;
68479;SDS011;55469;48.934;12.050;2023-07-28T03:38:01;3.10;;;2.60;;
68479;SDS011;55469;48.934;12.050;2023-07-28T03:40:27;3.42;;;2.55;;
68479;SDS011;55469;48.934;12.050;2023-07-28T03:42:53;3.28;;;2.65;;
68479;SDS011;55469;48.934;12.050;2023-07-28T03:45:19;2.90;;;2.60;;
68479;SDS011;55469;48.934;12.050;2023-07-28T03:47:45;3.30;;;3.00;;
68479;SDS011;55469;48.934;12.050;2023-07-28T03:50:11;5.05;;;2.75;;
68479;SDS011;55469;48.934;12.050;2023-07-28T03:52:37;3.25;;;2.67;;
68479;SDS011;55469;48.934;12.050;2023-07-28T03:55:02;2.67;;;2.35;;
68479;SDS011;55469;48.934;12.050;2023-07-28T03:57:29;3.45;;;3.00;;
68479;SDS011;55469;48.934;12.050;2023-07-28T03:59:54;3.22;;;2.67;;
68479;SDS011;55469;48.934;12.050;2023-07-28T04:02:20;5.07;;;3.42;;
68479;SDS011;55469;48.934;12.050;2023-07-28T04:04:46;3.53;;;2.50;;
68479;SDS011;55469;48.934;12.050;2023-07-28T04:07:12;3.67;;;3.03;;
68479;SDS011;55469;48.934;12.050;2023-07-28T04:09:37;4.03;;;2.83;;
68479;SDS011;55469;48.934;12.050;2023-07-28T04:12:03;2.53;;;2.33;;
68479;SDS011;55469;48.934;12.050;2023-07-28T04:14:29;4.93;;;3.53;;
68479;SDS011;55469;48.934;12.050;2023-07-28T04:16:55;5.25;;;3.10;;
68479;SDS011;55469;48.934;12.050;2023-07-28T04:19:20;5.38;;;3.15;;
68479;SDS011;55469;48.934;12.050;2023-07-28T04:21:46;4.78;;;2.70;;
68479;SDS011;55469;48.934;12.050;2023-07-28T04:24:12;4.90;;;3.00;;
68479;SDS011;55469;48.934;12.050;2023-07-28T04:26:37;4.60;;;3.28;;
68479;SDS011;55469;48.934;12.050;2023-07-28T04:29:03;3.92;;;2.90;;
68479;SDS011;55469;48.934;12.050;2023-07-28T04:31:29;3.95;;;2.88;;
68479;SDS011;55469;48.934;12.050;2023-07-28T04:33:55;5.07;;;3.00;;
68479;SDS011;55469;48.934;12.050;2023-07-28T04:36:20;3.58;;;2.80;;
68479;SDS011;55469;48.934;12.050;2023-07-28T04:38:46;3.00;;;2.75;;
68479;SDS011;55469;48.934;12.050;2023-07-28T04:41:12;4.75;;;2.70;;
68479;SDS011;55469;48.934;12.050;2023-07-28T04:43:37;3.88;;;2.63;;
68479;SDS011;55469;48.934;12.050;2023-07-28T04:46:03;4.10;;;3.08;;
68479;SDS011;55469;48.934;12.050;2023-07-28T04:48:29;3.00;;;2.70;;
68479;SDS011;55469;48.934;12.050;2023-07-28T04:50:54;3.75;;;2.63;;
68479;SDS011;55469;48.934;12.050;2023-07-28T04:53:20;3.67;;;2.58;;
68479;SDS011;55469;48.934;12.050;2023-07-28T04:55:46;3.15;;;2.80;;
68479;SDS011;55469;48.934;12.050;2023-07-28T04:58:12;4.95;;;3.10;;
68479;SDS011;55469;48.934;12.050;2023-07-28T05:00:37;4.65;;;2.50;;
68479;SDS011;55469;48.934;12.050;2023-07-28T05:03:03;2.92;;;2.38;;
68479;SDS011;55469;48.934;12.050;2023-07-28T05:05:29;3.28;;;2.33;;
68479;SDS011;55469;48.934;12.050;2023-07-28T05:07:55;4.00;;;2.60;;
68479;SDS011;55469;48.934;12.050;2023-07-28T05:10:20;3.65;;;2.50;;
68479;SDS011;55469;48.934;12.050;2023-07-28T05:12:46;3.22;;;2.58;;
68479;SDS011;55469;48.934;12.050;2023-07-28T05:15:13;2.40;;;2.20;;
68479;SDS011;55469;48.934;12.050;2023-07-28T05:17:40;3.17;;;2.67;;
68479;SDS011;55469;48.934;12.050;2023-07-28T05:20:06;3.75;;;2.63;;
68479;SDS011;55469;48.934;12.050;2023-07-28T05:22:32;3.25;;;2.47;;
68479;SDS011;55469;48.934;12.050;2023-07-28T05:24:58;3.42;;;2.47;;
68479;SDS011;55469;48.934;12.050;2023-07-28T05:27:24;4.28;;;2.85;;
68479;SDS011;55469;48.934;12.050;2023-07-28T05:29:50;3.05;;;2.55;;
68479;SDS011;55469;48.934;12.050;2023-07-28T05:32:15;3.00;;;2.58;;
68479;SDS011;55469;48.934;12.050;2023-07-28T05:34:42;3.20;;;2.90;;
68479;SDS011;55469;48.934;12.050;2023-07-28T05:37:08;2.92;;;2.63;;
68479;SDS011;55469;48.934;12.050;2023-07-28T05:39:34;4.60;;;2.67;;
68479;SDS011;55469;48.934;12.050;2023-07-28T05:42:00;6.00;;;2.75;;
68479;SDS011;55469;48.934;12.050;2023-07-28T05:44:26;2.97;;;2.55;;
68479;SDS011;55469;48.934;12.050;2023-07-28T05:46:52;3.08;;;2.63;;
68479;SDS011;55469;48.934;12.050;2023-07-28T05:49:18;3.22;;;2.53;;
68479;SDS011;55469;48.934;12.050;2023-07-28T05:51:44;2.58;;;2.38;;
68479;SDS011;55469;48.934;12.050;2023-07-28T05:54:09;3.00;;;2.70;;
68479;SDS011;55469;48.934;12.050;2023-07-28T05:56:39;2.88;;;2.30;;
68479;SDS011;55469;48.934;12.050;2023-07-28T05:59:05;2.80;;;2.33;;
68479;SDS011;55469;48.934;12.050;2023-07-28T06:01:31;3.20;;;2.50;;
68479;SDS011;55469;48.934;12.050;2023-07-28T06:03:56;2.97;;;2.40;;
68479;SDS011;55469;48.934;12.050;2023-07-28T06:06:24;3.05;;;2.28;;
68479;SDS011;55469;48.934;12.050;2023-07-28T06:08:53;3.47;;;2.67;;
68479;SDS011;55469;48.934;12.050;2023-07-28T06:11:19;2.65;;;2.33;;
68479;SDS011;55469;48.934;12.050;2023-07-28T06:13:46;4.07;;;2.80;;
68479;SDS011;55469;48.934;12.050;2023-07-28T06:16:13;3.38;;;2.55;;
68479;SDS011;55469;48.934;12.050;2023-07-28T06:18:39;3.22;;;2.80;;
68479;SDS011;55469;48.934;12.050;2023-07-28T06:21:05;3.95;;;3.00;;
68479;SDS011;55469;48.934;12.050;2023-07-28T06:23:31;4.30;;;3.50;;
68479;SDS011;55469;48.934;12.050;2023-07-28T06:25:57;3.75;;;3.20;;
68479;SDS011;55469;48.934;12.050;2023-07-28T06:28:22;4.43;;;3.70;;
68479;SDS011;55469;48.934;12.050;2023-07-28T06:30:53;5.20;;;3.50;;
68479;SDS011;55469;48.934;12.050;2023-07-28T06:33:24;4.60;;;3.53;;
68479;SDS011;55469;48.934;12.050;2023-07-28T06:35:50;4.07;;;3.20;;
68479;SDS011;55469;48.934;12.050;2023-07-28T06:38:17;4.28;;;3.38;;
68479;SDS011;55469;48.934;12.050;2023-07-28T06:40:43;5.20;;;3.72;;
68479;SDS011;55469;48.934;12.050;2023-07-28T06:43:08;6.00;;;3.97;;
68479;SDS011;55469;48.934;12.050;2023-07-28T06:45:34;4.20;;;3.20;;
68479;SDS011;55469;48.934;12.050;2023-07-28T06:48:00;5.00;;;3.50;;
68479;SDS011;55469;48.934;12.050;2023-07-28T06:50:25;4.68;;;3.30;;
68479;SDS011;55469;48.934;12.050;2023-07-28T06:52:51;4.22;;;3.58;;
68479;SDS011;55469;48.934;12.050;2023-07-28T06:55:17;4.47;;;3.72;;
68479;SDS011;55469;48.934;12.050;2023-07-28T06:57:44;5.72;;;3.75;;
68479;SDS011;55469;48.934;12.050;2023-07-28T07:00:09;5.00;;;3.80;;
68479;SDS011;55469;48.934;12.050;2023-07-28T07:02:36;4.65;;;3.67;;
68479;SDS011;55469;48.934;12.050;2023-07-28T07:05:02;4.30;;;3.60;;
68479;SDS011;55469;48.934;12.050;2023-07-28T07:07:28;6.40;;;4.10;;
68479;SDS011;55469;48.934;12.050;2023-07-28T07:09:54;5.25;;;3.92;;
68479;SDS011;55469;48.934;12.050;2023-07-28T07:12:20;6.38;;;3.85;;
68479;SDS011;55469;48.934;12.050;2023-07-28T07:14:46;3.85;;;3.35;;
68479;SDS011;55469;48.934;12.050;2023-07-28T07:17:12;5.22;;;3.70;;
68479;SDS011;55469;48.934;12.050;2023-07-28T07:19:38;4.05;;;3.30;;
68479;SDS011;55469;48.934;12.050;2023-07-28T07:22:04;4.40;;;3.22;;
68479;SDS011;55469;48.934;12.050;2023-07-28T07:24:32;4.63;;;3.55;;
68479;SDS011;55469;48.934;12.050;2023-07-28T07:26:58;4.38;;;3.45;;
68479;SDS011;55469;48.934;12.050;2023-07-28T07:29:23;4.78;;;3.45;;
68479;SDS011;55469;48.934;12.050;2023-07-28T07:31:49;4.47;;;3.55;;
68479;SDS011;55469;48.934;12.050;2023-07-28T07:34:19;4.50;;;3.33;;
68479;SDS011;55469;48.934;12.050;2023-07-28T07:36:46;5.32;;;3.63;;
68479;SDS011;55469;48.934;12.050;2023-07-28T07:39:12;4.47;;;3.55;;
68479;SDS011;55469;48.934;12.050;2023-07-28T07:41:38;5.78;;;3.40;;
68479;SDS011;55469;48.934;12.050;2023-07-28T07:44:03;6.07;;;3.30;;
68479;SDS011;55469;48.934;12.050;2023-07-28T07:46:29;5.00;;;3.15;;
68479;SDS011;55469;48.934;12.050;2023-07-28T07:48:55;4.07;;;3.22;;
68479;SDS011;55469;48.934;12.050;2023-07-28T07:51:20;4.15;;;3.22;;
68479;SDS011;55469;48.934;12.050;2023-07-28T07:53:46;4.60;;;3.30;;
68479;SDS011;55469;48.934;12.050;2023-07-28T07:56:12;4.28;;;3.22;;
68479;SDS011;55469;48.934;12.050;2023-07-28T07:58:38;6.32;;;3.50;;
68479;SDS011;55469;48.934;12.050;2023-07-28T08:01:03;4.82;;;3.88;;
68479;SDS011;55469;48.934;12.050;2023-07-28T08:03:30;4.20;;;3.38;;
68479;SDS011;55469;48.934;12.050;2023-07-28T08:05:57;4.57;;;3.60;;
68479;SDS011;55469;48.934;12.050;2023-07-28T08:08:23;4.85;;;3.10;;
68479;SDS011;55469;48.934;12.050;2023-07-28T08:10:49;4.38;;;3.60;;
68479;SDS011;55469;48.934;12.050;2023-07-28T08:13:15;5.65;;;3.13;;
68479;SDS011;55469;48.934;12.050;2023-07-28T08:15:44;4.45;;;3.40;;
68479;SDS011;55469;48.934;12.050;2023-07-28T08:18:12;5.32;;;3.33;;
68479;SDS011;55469;48.934;12.050;2023-07-28T08:20:38;5.40;;;3.38;;
68479;SDS011;55469;48.934;12.050;2023-07-28T08:23:04;5.47;;;3.30;;
68479;SDS011;55469;48.934;12.050;2023-07-28T08:25:30;5.50;;;3.22;;
68479;SDS011;55469;48.934;12.050;2023-07-28T08:27:56;3.90;;;3.22;;
68479;SDS011;55469;48.934;12.050;2023-07-28T08:30:21;5.15;;;3.25;;
68479;SDS011;55469;48.934;12.050;2023-07-28T08:32:47;4.88;;;2.92;;
68479;SDS011;55469;48.934;12.050;2023-07-28T08:35:14;6.10;;;2.85;;
68479;SDS011;55469;48.934;12.050;2023-07-28T08:37:40;4.88;;;2.85;;
68479;SDS011;55469;48.934;12.050;2023-07-28T08:40:05;5.22;;;3.10;;
68479;SDS011;55469;48.934;12.050;2023-07-28T08:42:36;4.18;;;2.50;;
68479;SDS011;55469;48.934;12.050;2023-07-28T08:45:03;4.63;;;3.13;;
68479;SDS011;55469;48.934;12.050;2023-07-28T08:47:31;3.33;;;2.60;;
68479;SDS011;55469;48.934;12.050;2023-07-28T08:49:58;3.65;;;2.97;;
68479;SDS011;55469;48.934;12.050;2023-07-28T08:52:23;4.95;;;3.20;;
68479;SDS011;55469;48.934;12.050;2023-07-28T08:54:49;4.65;;;2.95;;
68479;SDS011;55469;48.934;12.050;2023-07-28T08:57:16;5.35;;;3.45;;
68479;SDS011;55469;48.934;12.050;2023-07-28T08:59:41;3.85;;;3.00;;
68479;SDS011;55469;48.934;12.050;2023-07-28T09:02:13;3.95;;;3.30;;
68479;SDS011;55469;48.934;12.050;2023-07-28T09:04:43;4.07;;;3.00;;
68479;SDS011;55469;48.934;12.050;2023-07-28T09:07:10;3.40;;;3.00;;
68479;SDS011;55469;48.934;12.050;2023-07-28T09:09:37;4.00;;;3.17;;
68479;SDS011;55469;48.934;12.050;2023-07-28T09:12:03;4.50;;;3.50;;
68479;SDS011;55469;48.934;12.050;2023-07-28T09:14:30;4.90;;;3.30;;
68479;SDS011;55469;48.934;12.050;2023-07-28T09:17:06;4.45;;;3.30;;
68479;SDS011;55469;48.934;12.050;2023-07-28T09:22:17;3.90;;;3.10;;
68479;SDS011;55469;48.934;12.050;2023-07-28T09:24:43;4.10;;;3.28;;
68479;SDS011;55469;48.934;12.050;2023-07-28T09:27:12;4.85;;;3.20;;
68479;SDS011;55469;48.934;12.050;2023-07-28T09:29:54;4.53;;;3.30;;
68479;SDS011;55469;48.934;12.050;2023-07-28T09:32:26;4.32;;;3.08;;
68479;SDS011;55469;48.934;12.050;2023-07-28T09:35:05;4.15;;;3.00;;
68479;SDS011;55469;48.934;12.050;2023-07-28T09:37:46;3.45;;;2.88;;
68479;SDS011;55469;48.934;12.050;2023-07-28T09:40:17;4.63;;;3.25;;
68479;SDS011;55469;48.934;12.050;2023-07-28T09:42:46;3.60;;;2.95;;
68479;SDS011;55469;48.934;12.050;2023-07-28T09:45:16;4.32;;;2.90;;
68479;SDS011;55469;48.934;12.050;2023-07-28T09:47:46;4.65;;;3.17;;
68479;SDS011;55469;48.934;12.050;2023-07-28T09:50:14;3.35;;;3.05;;
68479;SDS011;55469;48.934;12.050;2023-07-28T09:52:53;3.65;;;2.67;;
68479;SDS011;55469;48.934;12.050;2023-07-28T09:55:27;5.07;;;2.90;;
68479;SDS011;55469;48.934;12.050;2023-07-28T09:57:55;3.70;;;2.92;;
68479;SDS011;55469;48.934;12.050;2023-07-28T10:00:24;3.28;;;2.78;;
68479;SDS011;55469;48.934;12.050;2023-07-28T10:02:51;3.88;;;2.95;;
68479;SDS011;55469;48.934;12.050;2023-07-28T10:05:18;3.00;;;2.70;;
68479;SDS011;55469;48.934;12.050;2023-07-28T10:07:44;3.80;;;2.60;;
68479;SDS011;55469;48.934;12.050;2023-07-28T10:10:13;3.35;;;2.90;;
68479;SDS011;55469;48.934;12.050;2023-07-28T10:15:14;3.25;;;2.58;;
68479;SDS011;55469;48.934;12.050;2023-07-28T10:17:43;3.58;;;2.75;;
68479;SDS011;55469;48.934;12.050;2023-07-28T10:23:05;3.47;;;2.55;;
68479;SDS011;55469;48.934;12.050;2023-07-28T10:25:37;4.45;;;2.72;;
68479;SDS011;55469;48.934;12.050;2023-07-28T10:28:04;4.10;;;2.80;;
68479;SDS011;55469;48.934;12.050;2023-07-28T10:30:35;5.57;;;3.08;;
68479;SDS011;55469;48.934;12.050;2023-07-28T10:33:32;4.40;;;3.25;;
68479;SDS011;55469;48.934;12.050;2023-07-28T10:36:50;4.25;;;2.80;;
68479;SDS011;55469;48.934;12.050;2023-07-28T10:39:02;3.33;;;2.97;;
68479;SDS011;55469;48.934;12.050;2023-07-28T10:41:46;3.85;;;2.90;;
68479;SDS011;55469;48.934;12.050;2023-07-28T10:44:30;3.20;;;2.58;;
68479;SDS011;55469;48.934;12.050;2023-07-28T10:46:56;3.63;;;2.75;;
68479;SDS011;55469;48.934;12.050;2023-07-28T10:49:24;3.15;;;2.70;;
68479;SDS011;55469;48.934;12.050;2023-07-28T10:51:50;5.93;;;3.03;;
68479;SDS011;55469;48.934;12.050;2023-07-28T10:54:16;3.78;;;3.10;;
68479;SDS011;55469;48.934;12.050;2023-07-28T10:56:47;3.33;;;2.80;;
68479;SDS011;55469;48.934;12.050;2023-07-28T10:59:13;3.55;;;2.75;;
68479;SDS011;55469;48.934;12.050;2023-07-28T11:01:40;5.18;;;3.00;;
68479;SDS011;55469;48.934;12.050;2023-07-28T11:06:39;3.50;;;2.78;;
68479;SDS011;55469;48.934;12.050;2023-07-28T11:09:10;3.47;;;2.67;;
68479;SDS011;55469;48.934;12.050;2023-07-28T11:11:38;3.15;;;2.58;;
68479;SDS011;55469;48.934;12.050;2023-07-28T11:14:07;4.38;;;3.03;;
68479;SDS011;55469;48.934;12.050;2023-07-28T11:16:38;3.65;;;2.78;;
68479;SDS011;55469;48.934;12.050;2023-07-28T11:19:10;4.55;;;2.70;;
68479;SDS011;55469;48.934;12.050;2023-07-28T11:21:39;3.58;;;2.70;;
68479;SDS011;55469;48.934;12.050;2023-07-28T11:24:07;3.20;;;2.70;;
68479;SDS011;55469;48.934;12.050;2023-07-28T11:26:37;3.63;;;2.72;;
68479;SDS011;55469;48.934;12.050;2023-07-28T11:29:04;3.45;;;2.72;;
68479;SDS011;55469;48.934;12.050;2023-07-28T11:31:31;3.75;;;2.78;;
68479;SDS011;55469;48.934;12.050;2023-07-28T11:33:58;3.63;;;3.03;;
68479;SDS011;55469;48.934;12.050;2023-07-28T11:36:25;3.58;;;2.80;;
68479;SDS011;55469;48.934;12.050;2023-07-28T11:38:56;3.45;;;2.90;;
68479;SDS011;55469;48.934;12.050;2023-07-28T11:41:24;4.53;;;2.70;;
68479;SDS011;55469;48.934;12.050;2023-07-28T11:43:51;3.47;;;2.90;;
68479;SDS011;55469;48.934;12.050;2023-07-28T11:46:33;3.05;;;2.70;;
68479;SDS011;55469;48.934;12.050;2023-07-28T11:49:17;5.10;;;3.13;;
68479;SDS011;55469;48.934;12.050;2023-07-28T11:51:48;4.38;;;2.90;;
68479;SDS011;55469;48.934;12.050;2023-07-28T11:54:17;3.63;;;2.80;;
68479;SDS011;55469;48.934;12.050;2023-07-28T11:56:47;4.57;;;3.03;;
68479;SDS011;55469;48.934;12.050;2023-07-28T11:59:17;3.08;;;2.78;;
68479;SDS011;55469;48.934;12.050;2023-07-28T12:01:51;4.03;;;3.05;;
68479;SDS011;55469;48.934;12.050;2023-07-28T12:12:14;5.07;;;2.80;;
68479;SDS011;55469;48.934;12.050;2023-07-28T12:14:41;3.53;;;2.90;;
68479;SDS011;55469;48.934;12.050;2023-07-28T12:17:14;3.58;;;2.88;;
68479;SDS011;55469;48.934;12.050;2023-07-28T12:19:59;3.05;;;2.63;;
68479;SDS011;55469;48.934;12.050;2023-07-28T12:22:47;4.28;;;2.90;;
68479;SDS011;55469;48.934;12.050;2023-07-28T12:25:14;4.22;;;2.67;;
68479;SDS011;55469;48.934;12.050;2023-07-28T12:27:40;3.75;;;2.83;;
68479;SDS011;55469;48.934;12.050;2023-07-28T12:30:05;2.97;;;2.40;;
68479;SDS011;55469;48.934;12.050;2023-07-28T12:32:35;2.95;;;2.50;;
68479;SDS011;55469;48.934;12.050;2023-07-28T12:35:01;3.90;;;2.85;;
68479;SDS011;55469;48.934;12.050;2023-07-28T12:37:26;4.00;;;2.70;;
68479;SDS011;55469;48.934;12.050;2023-07-28T12:39:52;3.13;;;2.33;;
68479;SDS011;55469;48.934;12.050;2023-07-28T12:42:18;2.55;;;2.35;;
68479;SDS011;55469;48.934;12.050;2023-07-28T12:44:45;3.05;;;2.50;;
68479;SDS011;55469;48.934;12.050;2023-07-28T12:47:11;3.15;;;1.98;;
68479;SDS011;55469;48.934;12.050;2023-07-28T12:49:36;2.63;;;1.90;;
68479;SDS011;55469;48.934;12.050;2023-07-28T12:52:04;2.08;;;1.88;;
68479;SDS011;55469;48.934;12.050;2023-07-28T12:54:32;2.25;;;1.90;;
68479;SDS011;55469;48.934;12.050;2023-07-28T12:56:58;2.08;;;1.88;;
68479;SDS011;55469;48.934;12.050;2023-07-28T12:59:24;3.65;;;1.80;;
68479;SDS011;55469;48.934;12.050;2023-07-28T13:01:49;1.77;;;1.67;;
68479;SDS011;55469;48.934;12.050;2023-07-28T13:04:15;2.05;;;1.67;;
68479;SDS011;55469;48.934;12.050;2023-07-28T13:06:41;1.85;;;1.55;;
68479;SDS011;55469;48.934;12.050;2023-07-28T13:09:06;1.80;;;1.70;;
68479;SDS011;55469;48.934;12.050;2023-07-28T13:11:35;2.10;;;1.90;;
68479;SDS011;55469;48.934;12.050;2023-07-28T13:14:01;2.03;;;1.80;;
68479;SDS011;55469;48.934;12.050;2023-07-28T13:16:28;1.60;;;1.50;;
68479;SDS011;55469;48.934;12.050;2023-07-28T13:18:53;2.63;;;1.50;;
68479;SDS011;55469;48.934;12.050;2023-07-28T13:21:20;3.45;;;1.63;;
68479;SDS011;55469;48.934;12.050;2023-07-28T13:23:46;1.83;;;1.60;;
68479;SDS011;55469;48.934;12.050;2023-07-28T13:26:11;1.60;;;1.50;;
68479;SDS011;55469;48.934;12.050;2023-07-28T13:28:38;1.40;;;1.30;;
68479;SDS011;55469;48.934;12.050;2023-07-28T13:31:08;1.45;;;1.33;;
68479;SDS011;55469;48.934;12.050;2023-07-28T13:33:33;1.58;;;1.33;;
68479;SDS011;55469;48.934;12.050;2023-07-28T13:35:59;1.30;;;1.20;;
68479;SDS011;55469;48.934;12.050;2023-07-28T13:38:28;0.93;;;0.93;;
68479;SDS011;55469;48.934;12.050;2023-07-28T13:40:54;1.63;;;1.27;;
68479;SDS011;55469;48.934;12.050;2023-07-28T13:43:20;1.23;;;1.10;;
68479;SDS011;55469;48.934;12.050;2023-07-28T13:45:45;1.05;;;0.95;;
68479;SDS011;55469;48.934;12.050;2023-07-28T13:48:11;1.27;;;1.17;;
68479;SDS011;55469;48.934;12.050;2023-07-28T13:50:37;1.10;;;1.00;;
68479;SDS011;55469;48.934;12.050;2023-07-28T13:53:02;1.05;;;0.95;;
68479;SDS011;55469;48.934;12.050;2023-07-28T13:55:28;1.10;;;1.00;;
68479;SDS011;55469;48.934;12.050;2023-07-28T13:57:54;0.88;;;0.88;;
68479;SDS011;55469;48.934;12.050;2023-07-28T14:00:20;0.95;;;0.90;;
68479;SDS011;55469;48.934;12.050;2023-07-28T14:02:45;1.27;;;1.17;;
68479;SDS011;55469;48.934;12.050;2023-07-28T14:05:11;1.08;;;0.90;;
68479;SDS011;55469;48.934;12.050;2023-07-28T14:07:37;0.95;;;0.88;;
68479;SDS011;55469;48.934;12.050;2023-07-28T14:10:03;1.15;;;0.82;;
68479;SDS011;55469;48.934;12.050;2023-07-28T14:12:29;1.15;;;1.05;;
68479;SDS011;55469;48.934;12.050;2023-07-28T14:14:55;0.95;;;0.70;;
68479;SDS011;55469;48.934;12.050;2023-07-28T14:17:20;0.80;;;0.80;;
68479;SDS011;55469;48.934;12.050;2023-07-28T14:19:46;1.00;;;1.00;;
68479;SDS011;55469;48.934;12.050;2023-07-28T14:22:12;0.80;;;0.80;;
68479;SDS011;55469;48.934;12.050;2023-07-28T14:24:38;1.05;;;0.80;;
68479;SDS011;55469;48.934;12.050;2023-07-28T14:27:04;0.90;;;0.90;;
68479;SDS011;55469;48.934;12.050;2023-07-28T14:29:30;1.10;;;0.90;;
68479;SDS011;55469;48.934;12.050;2023-07-28T14:31:56;0.90;;;0.80;;
68479;SDS011;55469;48.934;12.050;2023-07-28T14:34:22;0.95;;;0.90;;
68479;SDS011;55469;48.934;12.050;2023-07-28T14:36:47;0.80;;;0.80;;
68479;SDS011;55469;48.934;12.050;2023-07-28T14:39:13;1.25;;;0.80;;
68479;SDS011;55469;48.934;12.050;2023-07-28T14:41:39;0.73;;;0.73;;
68479;SDS011;55469;48.934;12.050;2023-07-28T14:44:04;0.88;;;0.88;;
68479;SDS011;55469;48.934;12.050;2023-07-28T14:46:30;0.88;;;0.80;;
68479;SDS011;55469;48.934;12.050;2023-07-28T14:48:56;0.73;;;0.73;;
68479;SDS011;55469;48.934;12.050;2023-07-28T14:51:22;0.85;;;0.85;;
68479;SDS011;55469;48.934;12.050;2023-07-28T14:53:48;0.77;;;0.75;;
68479;SDS011;55469;48.934;12.050;2023-07-28T14:56:15;0.80;;;0.80;;